createdAt,value
2023-03-02T00:01:53.549Z,19.85
2023-03-02T00:04:22.284Z,23.70
2023-03-02T00:06:51.704Z,21.50
2023-03-02T00:09:19.367Z,21.17
2023-03-02T00:11:47.011Z,25.92
2023-03-02T00:14:14.526Z,21.42
2023-03-02T00:16:42.033Z,22.55
2023-03-02T00:19:09.547Z,17.98
2023-03-02T00:21:37.073Z,20.60
2023-03-02T00:24:06.424Z,24.25
2023-03-02T00:26:34.543Z,21.63
2023-03-02T00:29:02.229Z,22.05
2023-03-02T00:31:29.750Z,20.95
2023-03-02T00:33:57.300Z,21.15
2023-03-02T00:36:24.871Z,23.23
2023-03-02T00:38:53.186Z,23.15
2023-03-02T00:41:22.431Z,25.00
2023-03-02T02:14:00.674Z,25.27
2023-03-02T02:16:28.386Z,21.65
2023-03-02T02:18:56.053Z,22.80
2023-03-02T02:21:24.320Z,20.33
2023-03-02T02:23:58.402Z,23.00
2023-03-02T02:26:28.396Z,21.02
2023-03-02T02:28:58.740Z,23.92
2023-03-02T02:31:29.727Z,23.17
2023-03-02T02:33:59.179Z,23.42
2023-03-02T02:36:33.231Z,23.70
2023-03-02T02:39:02.695Z,18.63
2023-03-02T02:41:34.387Z,23.25
2023-03-02T02:46:29.708Z,20.52
2023-03-02T02:48:57.424Z,23.48
2023-03-02T02:51:27.122Z,25.95
2023-03-02T02:53:58.644Z,27.15
2023-03-02T02:58:56.537Z,23.80
2023-03-02T03:01:25.854Z,23.42
2023-03-02T03:03:55.016Z,22.75
2023-03-02T03:06:25.619Z,21.48
2023-03-02T03:09:00.802Z,20.70
2023-03-02T03:11:29.266Z,21.00
2023-03-02T03:14:01.401Z,24.67
2023-03-02T03:16:30.113Z,23.60
2023-03-02T03:18:59.244Z,24.40
2023-03-02T03:21:26.738Z,21.30
2023-03-02T03:23:54.426Z,22.10
2023-03-02T03:26:22.015Z,23.75
2023-03-02T03:28:49.552Z,23.60
2023-03-02T03:31:18.525Z,24.05
2023-03-02T03:33:46.228Z,24.23
2023-03-02T03:36:13.887Z,23.15
2023-03-02T03:38:41.386Z,23.65
2023-03-02T03:41:08.897Z,28.30
2023-03-02T03:43:36.430Z,24.88
2023-03-02T03:46:04.010Z,23.27
2023-03-02T03:48:32.969Z,22.10
2023-03-02T03:51:00.679Z,25.25
2023-03-02T03:53:28.231Z,28.83
2023-03-02T03:55:56.882Z,22.25
2023-03-02T03:58:24.939Z,23.98
2023-03-02T04:00:52.607Z,23.88
2023-03-02T04:03:20.828Z,23.05
2023-03-02T04:05:49.925Z,26.38
2023-03-02T04:08:17.440Z,23.85
2023-03-02T04:10:45.183Z,25.23
2023-03-02T04:13:13.158Z,23.15
2023-03-02T04:15:41.693Z,22.67
2023-03-02T04:18:09.255Z,23.65
2023-03-02T04:20:36.831Z,25.38
2023-03-02T04:23:05.722Z,24.23
2023-03-02T04:25:33.308Z,28.67
2023-03-02T04:28:00.796Z,22.08
2023-03-02T04:30:28.348Z,23.58
2023-03-02T04:32:57.382Z,25.02
2023-03-02T04:35:25.242Z,24.45
2023-03-02T04:37:52.734Z,24.88
2023-03-02T04:40:21.910Z,28.58
2023-03-02T04:42:49.516Z,21.73
2023-03-02T04:45:17.132Z,24.08
2023-03-02T04:47:44.605Z,24.70
2023-03-02T04:50:13.193Z,26.05
2023-03-02T04:52:40.978Z,27.08
2023-03-02T04:55:08.913Z,23.52
2023-03-02T04:57:37.705Z,20.63
2023-03-02T05:00:07.376Z,23.25
2023-03-02T05:02:34.981Z,24.35
2023-03-02T05:05:02.586Z,22.60
2023-03-02T05:07:30.151Z,24.02
2023-03-02T05:09:57.649Z,22.58
2023-03-02T05:12:25.082Z,26.05
2023-03-02T05:14:53.986Z,24.25
2023-03-02T05:17:21.522Z,21.15
2023-03-02T05:19:49.034Z,22.30
2023-03-02T05:22:16.550Z,24.92
2023-03-02T05:24:43.997Z,28.25
2023-03-02T05:27:11.531Z,24.60
2023-03-02T05:29:39.045Z,21.98
2023-03-02T05:32:08.169Z,28.52
2023-03-02T05:34:35.717Z,23.83
2023-03-02T05:37:03.236Z,22.48
2023-03-02T05:39:30.768Z,21.75
2023-03-02T05:41:58.311Z,26.60
2023-03-02T05:44:25.834Z,26.98
2023-03-02T05:46:53.373Z,22.05
2023-03-02T05:49:22.216Z,20.92
2023-03-02T05:51:49.756Z,22.42
2023-03-02T05:54:17.273Z,24.33
2023-03-02T05:56:44.792Z,27.13
2023-03-02T05:59:12.372Z,27.23
2023-03-02T06:01:39.925Z,23.67
2023-03-02T06:04:07.519Z,25.23
2023-03-02T06:06:36.725Z,20.08
2023-03-02T06:09:04.472Z,23.75
2023-03-02T06:11:31.984Z,30.23
2023-03-02T06:13:59.453Z,25.85
2023-03-02T06:16:27.076Z,27.90
2023-03-02T06:18:54.616Z,23.42
2023-03-02T06:21:22.158Z,28.17
2023-03-02T06:23:51.060Z,28.13
2023-03-02T06:26:18.568Z,23.90
2023-03-02T06:28:52.968Z,23.17
2023-03-02T06:31:21.568Z,26.38
2023-03-02T06:33:49.146Z,27.92
2023-03-02T06:36:17.034Z,29.42
2023-03-02T06:38:44.704Z,22.38
2023-03-02T06:41:13.613Z,26.63
2023-03-02T06:43:41.169Z,25.42
2023-03-02T06:46:08.788Z,29.67
2023-03-02T06:48:36.324Z,26.00
2023-03-02T06:51:03.824Z,36.70
2023-03-02T06:53:31.393Z,31.83
2023-03-02T06:55:58.915Z,32.13
2023-03-02T06:58:27.748Z,35.35
2023-03-02T07:00:55.259Z,38.28
2023-03-02T07:03:22.782Z,34.25
2023-03-02T07:05:51.767Z,37.67
2023-03-02T07:08:19.586Z,37.13
2023-03-02T07:10:47.160Z,32.50
2023-03-02T07:13:14.715Z,35.42
2023-03-02T07:15:43.616Z,36.42
2023-03-02T07:18:11.114Z,35.28
2023-03-02T07:20:39.464Z,33.17
2023-03-02T07:23:06.976Z,35.40
2023-03-02T07:25:34.514Z,36.47
2023-03-02T07:28:02.010Z,33.42
2023-03-02T07:30:29.620Z,35.85
2023-03-02T07:32:58.625Z,35.05
2023-03-02T07:35:26.205Z,30.80
2023-03-02T07:37:53.752Z,35.35
2023-03-02T07:40:21.246Z,31.65
2023-03-02T07:42:48.712Z,34.22
2023-03-02T07:45:16.821Z,34.85
2023-03-02T07:47:44.484Z,42.15
2023-03-02T07:50:13.741Z,37.58
2023-03-02T07:52:41.263Z,40.33
2023-03-02T07:55:09.255Z,34.08
2023-03-02T07:57:36.884Z,31.58
2023-03-02T08:00:04.542Z,32.50
2023-03-02T08:02:33.511Z,33.95
2023-03-02T08:05:01.041Z,30.55
2023-03-02T08:07:29.950Z,29.45
2023-03-02T08:09:57.983Z,30.38
2023-03-02T08:12:25.530Z,30.05
2023-03-02T08:14:52.996Z,28.92
2023-03-02T08:17:20.680Z,33.03
2023-03-02T08:19:48.674Z,26.35
2023-03-02T08:22:16.236Z,32.53
2023-03-02T08:24:45.054Z,29.23
2023-03-02T08:27:13.976Z,28.33
2023-03-02T08:29:41.494Z,28.42
2023-03-02T08:32:09.328Z,27.13
2023-03-02T08:34:37.219Z,26.35
2023-03-02T08:37:04.747Z,27.13
2023-03-02T08:39:33.020Z,22.45
2023-03-02T08:42:01.983Z,28.25
2023-03-02T08:44:29.484Z,28.73
2023-03-02T08:46:56.992Z,28.15
2023-03-02T08:49:24.480Z,26.65
2023-03-02T08:51:53.608Z,26.70
2023-03-02T08:54:21.489Z,25.60
2023-03-02T08:56:49.003Z,28.63
2023-03-02T08:59:18.240Z,29.80
2023-03-02T09:01:45.874Z,27.25
2023-03-02T09:04:13.559Z,27.27
2023-03-02T09:06:42.557Z,30.08
2023-03-02T09:09:11.310Z,27.55
2023-03-02T09:11:38.989Z,26.30
2023-03-02T09:14:06.546Z,29.55
2023-03-02T09:16:35.607Z,27.88
2023-03-02T09:19:03.108Z,31.65
2023-03-02T09:21:30.751Z,28.27
2023-03-02T09:23:58.933Z,26.73
2023-03-02T09:26:27.065Z,28.90
2023-03-02T09:28:54.636Z,28.35
2023-03-02T09:31:22.275Z,28.17
2023-03-02T09:33:51.094Z,32.45
2023-03-02T09:36:20.294Z,26.77
2023-03-02T09:38:47.918Z,27.27
2023-03-02T09:41:29.851Z,26.15
2023-03-02T09:44:02.956Z,28.05
2023-03-02T09:46:32.607Z,26.42
2023-03-02T09:49:11.716Z,27.20
2023-03-02T09:51:44.812Z,28.52
2023-03-02T09:54:13.386Z,27.75
2023-03-02T09:56:45.728Z,25.58
2023-03-02T09:59:18.939Z,27.35
2023-03-02T10:01:49.077Z,26.55
2023-03-02T10:04:22.743Z,27.15
2023-03-02T10:06:53.426Z,25.48
2023-03-02T10:09:20.992Z,28.13
2023-03-02T10:11:55.189Z,26.63
2023-03-02T10:14:25.703Z,23.90
2023-03-02T10:16:55.022Z,25.75
2023-03-02T10:19:26.147Z,25.95
2023-03-02T10:21:56.489Z,27.10
2023-03-02T10:24:29.124Z,27.38
2023-03-02T10:26:59.192Z,27.38
2023-03-02T10:29:38.253Z,21.70
2023-03-02T10:32:11.649Z,22.27
2023-03-02T10:34:40.572Z,20.95
2023-03-02T10:37:12.671Z,21.70
2023-03-02T10:39:40.171Z,21.13
2023-03-02T10:42:08.531Z,19.48
2023-03-02T10:44:38.016Z,19.23
2023-03-02T10:47:06.079Z,21.38
2023-03-02T10:49:34.457Z,19.75
2023-03-02T10:52:04.196Z,21.30
2023-03-02T10:54:32.654Z,19.13
2023-03-02T10:57:01.260Z,16.60
2023-03-02T10:59:40.834Z,15.45
2023-03-02T11:02:15.950Z,13.95
2023-03-02T11:04:43.751Z,16.48
2023-03-02T11:07:17.384Z,15.90
2023-03-02T11:09:45.053Z,14.82
2023-03-02T11:12:15.313Z,16.58
2023-03-02T11:14:43.513Z,14.15
2023-03-02T11:17:31.490Z,18.73
2023-03-02T11:19:59.032Z,13.10
2023-03-02T11:22:32.837Z,13.27
2023-03-02T11:25:01.419Z,12.75
2023-03-02T11:27:30.764Z,13.73
2023-03-02T11:29:59.474Z,12.38
2023-03-02T11:32:30.218Z,12.65
2023-03-02T11:34:58.969Z,11.95
2023-03-02T11:37:29.335Z,11.38
2023-03-02T11:40:01.378Z,11.73
2023-03-02T11:42:30.984Z,11.05
2023-03-02T11:45:01.594Z,12.48
2023-03-02T11:47:29.312Z,11.55
2023-03-02T11:49:58.279Z,13.70
2023-03-02T11:52:27.408Z,14.98
2023-03-02T11:54:55.982Z,13.30
2023-03-02T11:57:28.747Z,15.48
2023-03-02T11:59:58.470Z,12.70
2023-03-02T12:02:26.164Z,14.18
2023-03-02T12:05:02.460Z,13.98
2023-03-02T12:07:30.095Z,11.68
2023-03-02T12:09:58.955Z,13.13
2023-03-02T12:12:35.607Z,15.15
2023-03-02T12:15:03.149Z,12.13
2023-03-02T12:17:32.494Z,13.23
2023-03-02T12:20:27.175Z,12.55
2023-03-02T12:22:55.069Z,14.40
2023-03-02T12:25:27.619Z,12.18
2023-03-02T12:27:56.844Z,14.88
2023-03-02T12:30:26.822Z,11.02
2023-03-02T12:33:02.258Z,11.00
2023-03-02T12:35:31.440Z,12.23
2023-03-02T12:38:00.701Z,12.73
2023-03-02T12:40:40.627Z,12.30
2023-03-02T12:43:26.582Z,11.65
2023-03-02T12:46:03.577Z,13.38
2023-03-02T12:48:32.791Z,12.77
2023-03-02T12:51:01.644Z,12.20
2023-03-02T12:53:29.724Z,10.65
2023-03-02T12:55:57.283Z,11.25
2023-03-02T12:58:28.663Z,10.48
2023-03-02T13:00:57.295Z,12.73
2023-03-02T13:03:26.270Z,9.23
2023-03-02T13:06:01.015Z,12.35
2023-03-02T13:08:29.539Z,11.35
2023-03-02T13:10:58.441Z,9.98
2023-03-02T13:13:28.660Z,10.93
2023-03-02T13:15:57.791Z,12.07
2023-03-02T13:18:26.529Z,9.63
2023-03-02T13:20:54.051Z,10.07
2023-03-02T13:23:21.566Z,9.32
2023-03-02T13:25:49.979Z,9.45
2023-03-02T13:28:28.472Z,9.18
2023-03-02T13:31:00.218Z,12.23
2023-03-02T13:33:28.576Z,10.93
2023-03-02T13:35:57.021Z,10.25
2023-03-02T13:38:25.770Z,12.23
2023-03-02T13:40:54.034Z,10.77
2023-03-02T13:43:39.655Z,12.85
2023-03-02T13:46:08.702Z,12.52
2023-03-02T13:48:36.290Z,13.18
2023-03-02T13:51:04.937Z,14.45
2023-03-02T13:53:34.729Z,13.02
2023-03-02T13:56:02.745Z,15.52
2023-03-02T13:58:32.797Z,18.88
2023-03-02T14:01:01.715Z,17.27
2023-03-02T14:03:30.262Z,22.35
2023-03-02T14:05:58.625Z,19.38
2023-03-02T14:08:26.490Z,25.08
2023-03-02T14:10:55.140Z,24.83
2023-03-02T14:13:23.343Z,28.77
2023-03-02T14:15:52.400Z,26.40
2023-03-02T14:18:27.763Z,26.42
2023-03-02T14:20:55.605Z,30.77
2023-03-02T14:23:23.220Z,26.83
2023-03-02T14:25:50.945Z,28.33
2023-03-02T14:28:20.996Z,29.42
2023-03-02T14:30:48.576Z,29.67
2023-03-02T14:33:17.316Z,31.85
2023-03-02T14:35:46.205Z,34.00
2023-03-02T14:38:13.755Z,34.00
2023-03-02T14:40:41.281Z,34.35
2023-03-02T14:43:10.016Z,37.92
2023-03-02T14:45:37.503Z,37.90
2023-03-02T14:48:05.185Z,37.78
2023-03-02T14:50:34.277Z,42.47
2023-03-02T14:53:03.193Z,41.47
2023-03-02T14:55:31.620Z,41.55
2023-03-02T14:58:00.434Z,45.15
2023-03-02T15:00:28.375Z,49.13
2023-03-02T15:02:56.306Z,48.47
2023-03-02T15:05:23.914Z,50.20
2023-03-02T15:07:53.560Z,54.50
2023-03-02T15:10:23.245Z,55.72
2023-03-02T15:12:50.789Z,56.17
2023-03-02T15:15:18.571Z,54.08
2023-03-02T15:17:46.087Z,51.40
2023-03-02T15:20:15.159Z,52.65
2023-03-02T15:22:42.712Z,47.78
2023-03-02T15:25:10.830Z,51.13
2023-03-02T15:27:39.695Z,56.90
2023-03-02T15:30:07.717Z,52.05
2023-03-02T15:32:36.957Z,54.10
2023-03-02T15:35:05.094Z,52.53
2023-03-02T15:37:32.571Z,56.72
2023-03-02T15:40:00.099Z,53.25
2023-03-02T15:42:27.737Z,53.55
2023-03-02T15:44:56.640Z,49.42
2023-03-02T15:47:24.118Z,50.50
2023-03-02T15:49:51.694Z,53.33
2023-03-02T15:52:19.922Z,54.50
2023-03-02T15:54:47.440Z,60.28
2023-03-02T15:57:15.115Z,57.47
2023-03-02T15:59:43.597Z,61.05
2023-03-02T16:02:12.729Z,51.28
2023-03-02T16:04:40.441Z,58.47
2023-03-02T16:07:08.064Z,52.13
2023-03-02T16:09:35.498Z,54.47
2023-03-02T16:12:03.005Z,52.70
2023-03-02T16:14:30.550Z,56.28
2023-03-02T16:16:58.172Z,52.80
2023-03-02T16:19:27.134Z,57.88
2023-03-02T16:21:54.607Z,55.22
2023-03-02T16:24:22.164Z,54.50
2023-03-02T16:26:50.854Z,53.20
2023-03-02T16:29:18.343Z,54.55
2023-03-02T16:31:46.705Z,59.03
2023-03-02T16:34:14.373Z,47.90
2023-03-02T16:36:43.372Z,52.28
2023-03-02T16:39:11.499Z,51.78
2023-03-02T16:41:39.407Z,52.42
2023-03-02T16:44:07.290Z,51.50
2023-03-02T16:46:36.639Z,53.50
2023-03-02T16:49:04.193Z,48.47
2023-03-02T16:51:31.703Z,53.90
2023-03-02T16:54:00.538Z,60.95
2023-03-02T16:56:28.115Z,63.65
2023-03-02T16:58:55.761Z,64.95
2023-03-02T17:01:24.040Z,65.22
2023-03-02T17:03:51.803Z,60.72
2023-03-02T17:06:20.039Z,70.00
2023-03-02T17:08:47.529Z,65.97
2023-03-02T17:11:16.681Z,63.72
2023-03-02T17:13:44.221Z,71.38
2023-03-02T17:16:11.812Z,78.78
2023-03-02T17:18:40.850Z,78.75
2023-03-02T17:21:08.856Z,80.13
2023-03-02T17:23:37.036Z,84.43
2023-03-02T17:26:04.824Z,84.90
2023-03-02T17:28:33.716Z,87.57
2023-03-02T17:31:03.487Z,87.47
2023-03-02T17:33:33.776Z,87.20
2023-03-02T17:36:03.411Z,74.65
2023-03-02T17:38:30.949Z,81.90
2023-03-02T17:41:02.028Z,78.32
2023-03-02T17:43:31.242Z,73.32
2023-03-02T17:46:08.072Z,81.20
2023-03-02T17:48:35.580Z,73.90
2023-03-02T17:51:03.081Z,83.75
2023-03-02T17:53:30.691Z,84.63
2023-03-02T17:55:58.169Z,78.88
2023-03-02T17:58:30.583Z,84.53
2023-03-02T18:01:05.193Z,86.38
2023-03-02T18:03:32.759Z,97.05
2023-03-02T18:06:00.226Z,96.68
2023-03-02T18:08:27.847Z,91.40
2023-03-02T18:10:55.342Z,82.90
2023-03-02T18:13:22.857Z,80.50
2023-03-02T18:15:50.427Z,77.57
2023-03-02T18:18:20.474Z,80.85
2023-03-02T18:20:48.005Z,85.05
2023-03-02T18:23:15.670Z,73.95
2023-03-02T18:25:43.121Z,81.50
2023-03-02T18:28:10.569Z,68.25
2023-03-02T18:30:38.052Z,74.07
2023-03-02T18:33:05.676Z,66.35
2023-03-02T18:35:34.773Z,66.65
2023-03-02T18:38:02.329Z,62.03
2023-03-02T18:40:29.900Z,68.45
2023-03-02T18:42:57.409Z,74.32
2023-03-02T18:45:25.956Z,65.68
2023-03-02T18:47:53.553Z,62.03
2023-03-02T18:50:21.478Z,68.60
2023-03-02T18:52:52.921Z,69.20
2023-03-02T18:57:47.916Z,52.28
2023-03-02T19:00:16.992Z,54.80
2023-03-02T19:02:44.501Z,49.67
2023-03-02T19:05:12.123Z,53.20
2023-03-02T19:07:39.636Z,54.33
2023-03-02T19:10:09.250Z,60.53
2023-03-02T19:12:36.732Z,59.72
2023-03-02T19:15:04.798Z,60.10
2023-03-02T19:17:32.297Z,58.20
2023-03-02T19:19:59.823Z,60.53
2023-03-02T19:22:27.338Z,61.67
2023-03-02T19:24:54.852Z,59.83
2023-03-02T19:27:23.676Z,54.67
2023-03-02T19:29:51.168Z,57.35
2023-03-02T19:32:20.086Z,54.25
2023-03-02T19:34:48.015Z,48.67
2023-03-02T19:37:15.532Z,49.55
2023-03-02T19:39:43.428Z,48.72
2023-03-02T19:42:11.379Z,54.03
2023-03-02T19:44:40.353Z,54.20
2023-03-02T19:47:07.804Z,59.40
2023-03-02T19:49:36.526Z,58.20
2023-03-02T19:52:04.254Z,62.80
2023-03-02T19:54:31.737Z,53.17
2023-03-02T19:56:59.341Z,58.28
2023-03-02T19:59:26.881Z,58.60
2023-03-02T20:01:56.295Z,56.33
2023-03-02T20:04:23.851Z,49.30
2023-03-02T20:06:51.364Z,48.53
2023-03-02T20:09:20.196Z,57.15
2023-03-02T20:11:47.846Z,50.92
2023-03-02T20:14:31.329Z,59.95
2023-03-02T20:17:01.963Z,54.50
2023-03-02T20:19:29.519Z,48.78
2023-03-02T20:21:57.021Z,49.17
2023-03-02T20:24:24.617Z,51.97
2023-03-02T20:26:52.119Z,37.53
2023-03-02T20:29:19.800Z,25.50
2023-03-02T20:31:47.453Z,25.48
2023-03-02T20:34:16.980Z,20.38
2023-03-02T20:36:45.027Z,21.85
2023-03-02T20:39:14.357Z,22.52
2023-03-02T20:41:42.131Z,22.92
2023-03-02T20:44:10.121Z,20.55
2023-03-02T20:46:40.358Z,20.80
2023-03-02T20:49:09.498Z,24.58
2023-03-02T20:51:39.059Z,19.98
2023-03-02T20:54:06.855Z,22.35
2023-03-02T20:56:34.488Z,26.23
2023-03-02T20:59:02.032Z,27.25
2023-03-02T21:01:29.798Z,22.95
2023-03-02T21:03:57.403Z,25.83
2023-03-02T21:06:25.072Z,29.25
2023-03-02T21:08:53.984Z,24.05
2023-03-02T21:11:22.023Z,22.27
2023-03-02T21:13:49.928Z,17.55
2023-03-02T21:16:18.876Z,19.02
2023-03-02T21:18:46.386Z,17.40
2023-03-02T21:21:14.439Z,20.92
2023-03-02T21:23:42.531Z,21.50
2023-03-02T21:26:11.663Z,17.48
2023-03-02T21:28:43.913Z,15.48
2023-03-02T21:31:11.928Z,19.95
2023-03-02T21:33:39.430Z,18.92
2023-03-02T21:36:07.393Z,18.35
2023-03-02T21:38:34.976Z,17.50
2023-03-02T21:41:02.447Z,21.20
2023-03-02T21:43:31.340Z,19.17
2023-03-02T21:46:01.169Z,20.48
2023-03-02T21:48:28.844Z,18.92
2023-03-02T21:50:56.329Z,20.10
2023-03-02T21:53:23.777Z,20.00
2023-03-02T21:55:54.823Z,16.17
2023-03-02T21:58:22.577Z,17.15
2023-03-02T22:00:51.517Z,19.67
2023-03-02T22:03:19.069Z,23.35
2023-03-02T22:05:46.614Z,18.63
2023-03-02T22:08:14.565Z,22.50
2023-03-02T22:10:43.116Z,20.67
2023-03-02T22:13:18.360Z,21.05
2023-03-02T22:15:46.035Z,20.88
2023-03-02T22:18:15.712Z,19.75
2023-03-02T22:20:44.629Z,21.15
2023-03-02T22:23:13.669Z,25.27
2023-03-02T22:25:41.624Z,21.05
2023-03-02T22:28:16.279Z,26.38
2023-03-02T22:30:43.841Z,25.15
2023-03-02T22:33:18.502Z,22.45
2023-03-02T22:35:46.113Z,25.60
2023-03-02T22:38:15.054Z,25.08
2023-03-02T22:40:42.858Z,23.15
2023-03-02T22:43:14.910Z,21.92
2023-03-02T22:45:42.763Z,24.60
2023-03-02T22:48:14.747Z,21.00
2023-03-02T22:50:44.032Z,20.70
2023-03-02T22:53:20.694Z,19.95
2023-03-02T22:55:48.592Z,20.63
2023-03-02T22:58:28.423Z,18.70
2023-03-02T23:00:56.214Z,18.17
2023-03-02T23:03:24.839Z,18.88
2023-03-02T23:05:53.780Z,23.60
2023-03-02T23:08:22.253Z,24.48
2023-03-02T23:10:50.627Z,18.13
2023-03-02T23:13:19.747Z,19.85
2023-03-02T23:15:47.919Z,21.33
2023-03-02T23:18:19.976Z,18.60
2023-03-02T23:20:47.624Z,18.35
2023-03-02T23:23:16.515Z,20.38
2023-03-02T23:25:44.071Z,20.85
2023-03-02T23:28:12.036Z,19.92
2023-03-02T23:30:39.565Z,19.98
2023-03-02T23:33:07.074Z,21.50
2023-03-02T23:35:34.648Z,21.65
2023-03-02T23:38:02.213Z,20.30
2023-03-02T23:40:31.074Z,22.63
2023-03-02T23:42:58.641Z,22.23
2023-03-02T23:45:26.449Z,21.90
2023-03-02T23:47:53.926Z,21.70
2023-03-02T23:50:21.395Z,23.10
2023-03-02T23:52:49.203Z,19.73
2023-03-02T23:55:16.785Z,22.33
2023-03-02T23:57:45.733Z,23.58
